createdAt,value
2019-03-13T00:00:00.674Z,19.72
2019-03-13T00:01:00.736Z,19.71
2019-03-13T00:02:00.552Z,19.71
2019-03-13T00:03:00.622Z,19.71
2019-03-13T00:04:00.391Z,19.71
2019-03-13T00:05:00.628Z,19.71
2019-03-13T00:06:00.757Z,19.7
2019-03-13T00:07:00.413Z,19.7
2019-03-13T00:08:00.566Z,19.7
2019-03-13T00:09:00.597Z,19.68
2019-03-13T00:10:00.455Z,19.68
2019-03-13T00:11:00.640Z,19.68
2019-03-13T00:12:00.604Z,19.69
2019-03-13T00:13:00.791Z,19.67
2019-03-13T00:14:00.477Z,19.68
2019-03-13T00:15:00.731Z,19.67
2019-03-13T00:16:00.505Z,19.66
2019-03-13T00:17:00.687Z,19.65
2019-03-13T00:18:00.492Z,19.64
2019-03-13T00:19:00.528Z,19.64
2019-03-13T00:20:00.663Z,19.64
2019-03-13T00:21:00.528Z,19.64
2019-03-13T00:22:00.528Z,19.63
2019-03-13T00:23:00.668Z,19.62
2019-03-13T00:24:00.491Z,19.62
2019-03-13T00:25:00.828Z,19.62
2019-03-13T00:26:00.712Z,19.62
2019-03-13T00:27:00.573Z,19.62
2019-03-13T00:28:00.568Z,19.62
2019-03-13T00:29:00.492Z,19.62
2019-03-13T00:30:02.073Z,19.62
2019-03-13T00:31:00.664Z,19.6
2019-03-13T00:32:00.409Z,19.59
2019-03-13T00:33:00.589Z,19.59
2019-03-13T00:34:00.883Z,19.58
2019-03-13T00:35:00.438Z,19.58
2019-03-13T00:36:00.577Z,19.58
2019-03-13T00:37:00.716Z,19.58
2019-03-13T00:38:00.454Z,19.57
2019-03-13T00:39:00.642Z,19.57
2019-03-13T00:40:00.685Z,19.57
2019-03-13T00:41:00.502Z,19.56
2019-03-13T00:42:00.598Z,19.57
2019-03-13T00:43:00.765Z,19.56
2019-03-13T00:44:00.618Z,19.55
2019-03-13T00:45:00.971Z,19.55
2019-03-13T00:46:00.870Z,19.56
2019-03-13T00:47:00.472Z,19.54
2019-03-13T00:48:00.615Z,19.54
2019-03-13T00:49:00.402Z,19.54
2019-03-13T00:50:00.619Z,19.54
2019-03-13T00:51:00.674Z,19.54
2019-03-13T00:52:00.500Z,19.53
2019-03-13T00:53:00.460Z,19.54
2019-03-13T00:54:00.619Z,19.53
2019-03-13T00:55:00.421Z,19.52
2019-03-13T00:56:00.480Z,19.52
2019-03-13T00:57:00.678Z,19.51
2019-03-13T00:58:00.493Z,19.52
2019-03-13T00:59:00.504Z,19.51
2019-03-13T01:00:00.738Z,19.5
2019-03-13T01:01:04.004Z,19.51
2019-03-13T01:02:00.651Z,19.5
2019-03-13T01:03:00.639Z,19.5
2019-03-13T01:04:03.050Z,19.49
2019-03-13T01:05:00.565Z,19.48
2019-03-13T01:06:00.733Z,19.5
2019-03-13T01:07:00.462Z,19.49
2019-03-13T01:08:00.572Z,19.49
2019-03-13T01:09:00.674Z,19.48
2019-03-13T01:10:00.515Z,19.47
2019-03-13T01:11:00.385Z,19.47
2019-03-13T01:12:00.675Z,19.47
2019-03-13T01:13:00.565Z,19.46
2019-03-13T01:14:00.611Z,19.44
2019-03-13T01:15:00.501Z,19.45
2019-03-13T01:16:00.550Z,19.46
2019-03-13T01:17:00.697Z,19.46
2019-03-13T01:18:00.471Z,19.45
2019-03-13T01:19:00.679Z,19.45
2019-03-13T01:20:00.713Z,19.44
2019-03-13T01:21:00.434Z,19.45
2019-03-13T01:22:00.579Z,19.44
2019-03-13T01:23:00.421Z,19.44
2019-03-13T01:24:00.779Z,19.43
2019-03-13T01:25:00.648Z,19.43
2019-03-13T01:26:00.444Z,19.41
2019-03-13T01:27:00.371Z,19.43
2019-03-13T01:28:00.608Z,19.42
2019-03-13T01:29:00.480Z,19.41
2019-03-13T01:30:00.483Z,19.41
2019-03-13T01:31:00.406Z,19.41
2019-03-13T01:32:00.508Z,19.4
2019-03-13T01:33:00.484Z,19.4
2019-03-13T01:34:00.774Z,19.39
2019-03-13T01:35:00.461Z,19.4
2019-03-13T01:36:00.527Z,19.39
2019-03-13T01:37:00.679Z,19.39
2019-03-13T01:38:00.686Z,19.39
2019-03-13T01:39:01.150Z,19.39
2019-03-13T01:40:00.667Z,19.38
2019-03-13T01:41:00.494Z,19.38
2019-03-13T01:42:00.519Z,19.38
2019-03-13T01:43:00.697Z,19.37
2019-03-13T01:44:00.555Z,19.36
2019-03-13T01:45:00.530Z,19.37
2019-03-13T01:46:00.496Z,19.36
2019-03-13T01:47:00.488Z,19.35
2019-03-13T01:48:00.545Z,19.35
2019-03-13T01:49:00.381Z,19.34
2019-03-13T01:50:00.560Z,19.33
2019-03-13T01:51:00.554Z,19.33
2019-03-13T01:52:00.428Z,19.34
2019-03-13T01:53:00.546Z,19.32
2019-03-13T01:54:00.725Z,19.34
2019-03-13T01:55:00.489Z,19.33
2019-03-13T01:56:00.622Z,19.33
2019-03-13T01:57:00.627Z,19.32
2019-03-13T01:58:00.572Z,19.32
2019-03-13T01:59:00.422Z,19.32
2019-03-13T02:00:00.679Z,19.32
2019-03-13T02:01:00.591Z,19.32
2019-03-13T02:02:00.618Z,19.31
2019-03-13T02:03:00.476Z,19.31
2019-03-13T02:04:00.578Z,19.31
2019-03-13T02:05:00.655Z,19.3
2019-03-13T02:06:00.474Z,19.3
2019-03-13T02:07:00.526Z,19.3
2019-03-13T02:08:00.639Z,19.3
2019-03-13T02:09:00.471Z,19.29
2019-03-13T02:10:00.462Z,19.3
2019-03-13T02:11:00.704Z,19.29
2019-03-13T02:12:00.562Z,19.29
2019-03-13T02:13:00.554Z,19.28
2019-03-13T02:14:00.497Z,19.28
2019-03-13T02:15:00.535Z,19.28
2019-03-13T02:16:00.691Z,19.28
2019-03-13T02:17:00.433Z,19.27
2019-03-13T02:18:00.373Z,19.27
2019-03-13T02:19:00.578Z,19.26
2019-03-13T02:20:00.529Z,19.26
2019-03-13T02:21:00.518Z,19.25
2019-03-13T02:22:00.673Z,19.25
2019-03-13T02:23:00.533Z,19.26
2019-03-13T02:24:00.544Z,19.25
2019-03-13T02:25:00.697Z,19.25
2019-03-13T02:26:00.446Z,19.25
2019-03-13T02:27:00.511Z,19.25
2019-03-13T02:28:00.703Z,19.24
2019-03-13T02:29:00.478Z,19.24
2019-03-13T02:30:00.916Z,19.24
2019-03-13T02:31:00.459Z,19.24
2019-03-13T02:32:00.712Z,19.24
2019-03-13T02:33:00.607Z,19.24
2019-03-13T02:34:00.448Z,19.23
2019-03-13T02:35:00.469Z,19.22
2019-03-13T02:36:00.710Z,19.22
2019-03-13T02:37:00.419Z,19.21
2019-03-13T02:38:00.405Z,19.22
2019-03-13T02:39:00.562Z,19.21
2019-03-13T02:40:00.667Z,19.22
2019-03-13T02:41:00.489Z,19.21
2019-03-13T02:42:00.645Z,19.21
2019-03-13T02:43:00.512Z,19.2
2019-03-13T02:44:00.594Z,19.2
2019-03-13T02:45:00.927Z,19.2
2019-03-13T02:46:00.567Z,19.2
2019-03-13T02:47:00.645Z,19.2
2019-03-13T02:48:00.356Z,19.19
2019-03-13T02:49:00.482Z,19.19
2019-03-13T02:50:00.578Z,19.19
2019-03-13T02:51:00.643Z,19.19
2019-03-13T02:52:00.445Z,19.19
2019-03-13T02:53:00.685Z,19.18
2019-03-13T02:54:00.409Z,19.19
2019-03-13T02:55:00.567Z,19.19
2019-03-13T02:56:00.377Z,19.18
2019-03-13T02:57:00.432Z,19.17
2019-03-13T02:58:00.873Z,19.17
2019-03-13T02:59:00.450Z,19.17
2019-03-13T03:00:00.523Z,19.17
2019-03-13T03:01:00.854Z,19.17
2019-03-13T03:02:00.439Z,19.16
2019-03-13T03:03:00.376Z,19.17
2019-03-13T03:04:00.581Z,19.17
2019-03-13T03:05:00.536Z,19.17
2019-03-13T03:06:00.889Z,19.16
2019-03-13T03:07:01.052Z,19.15
2019-03-13T03:08:00.467Z,19.15
2019-03-13T03:09:00.498Z,19.14
2019-03-13T03:10:00.643Z,19.15
2019-03-13T03:11:00.477Z,19.14
2019-03-13T03:12:00.531Z,19.14
2019-03-13T03:13:00.380Z,19.14
2019-03-13T03:14:00.436Z,19.14
2019-03-13T03:15:00.617Z,19.12
2019-03-13T03:16:00.463Z,19.13
2019-03-13T03:17:00.478Z,19.13
2019-03-13T03:18:00.539Z,19.13
2019-03-13T03:19:00.352Z,19.12
2019-03-13T03:20:00.666Z,19.12
2019-03-13T03:21:00.586Z,19.11
2019-03-13T03:22:00.399Z,19.11
2019-03-13T03:23:00.511Z,19.11
2019-03-13T03:24:00.536Z,19.12
2019-03-13T03:25:00.582Z,19.11
2019-03-13T03:26:00.529Z,19.11
2019-03-13T03:27:00.652Z,19.11
2019-03-13T03:28:00.431Z,19.1
2019-03-13T03:29:00.546Z,19.1
2019-03-13T03:30:00.812Z,19.1
2019-03-13T03:31:00.417Z,19.1
2019-03-13T03:32:00.528Z,19.09
2019-03-13T03:33:00.615Z,19.09
2019-03-13T03:34:00.447Z,19.09
2019-03-13T03:35:01.008Z,19.1
2019-03-13T03:36:00.426Z,19.08
2019-03-13T03:37:00.551Z,19.08
2019-03-13T03:38:00.557Z,19.08
2019-03-13T03:39:00.447Z,19.07
2019-03-13T03:40:00.551Z,19.07
2019-03-13T03:41:00.646Z,19.07
2019-03-13T03:42:00.464Z,19.07
2019-03-13T03:43:00.368Z,19.06
2019-03-13T03:44:00.685Z,19.06
2019-03-13T03:45:00.680Z,19.06
2019-03-13T03:46:00.660Z,19.05
2019-03-13T03:47:00.614Z,19.06
2019-03-13T03:48:00.477Z,19.06
2019-03-13T03:49:00.605Z,19.05
2019-03-13T03:50:00.750Z,19.05
2019-03-13T03:51:00.482Z,19.06
2019-03-13T03:52:00.520Z,19.04
2019-03-13T03:53:00.363Z,19.04
2019-03-13T03:54:00.515Z,19.05
2019-03-13T03:55:00.665Z,19.05
2019-03-13T03:56:00.370Z,19.04
2019-03-13T03:57:00.502Z,19.04
2019-03-13T03:58:00.684Z,19.03
2019-03-13T03:59:00.458Z,19.04
2019-03-13T04:00:00.558Z,19.03
2019-03-13T04:01:00.536Z,19.04
2019-03-13T04:02:00.407Z,19.03
2019-03-13T04:03:00.569Z,19.03
2019-03-13T04:04:00.520Z,19.03
2019-03-13T04:05:00.833Z,19.02
2019-03-13T04:06:00.527Z,19.02
2019-03-13T04:07:00.320Z,19.02
2019-03-13T04:08:00.529Z,19.03
2019-03-13T04:09:00.574Z,19.02
2019-03-13T04:10:00.477Z,19.03
2019-03-13T04:11:00.360Z,19.03
2019-03-13T04:12:00.722Z,19.04
2019-03-13T04:13:00.546Z,19.04
2019-03-13T04:14:00.527Z,19.04
2019-03-13T04:15:00.553Z,19.04
2019-03-13T04:16:00.345Z,19.05
2019-03-13T04:17:00.523Z,19.06
2019-03-13T04:18:00.565Z,19.06
2019-03-13T04:19:00.347Z,19.07
2019-03-13T04:20:00.728Z,19.08
2019-03-13T04:21:00.619Z,19.08
2019-03-13T04:22:00.371Z,19.09
2019-03-13T04:23:00.440Z,19.11
2019-03-13T04:24:00.568Z,19.12
2019-03-13T04:25:00.541Z,19.12
2019-03-13T04:26:00.554Z,19.13
2019-03-13T04:27:00.628Z,19.15
2019-03-13T04:28:00.386Z,19.15
2019-03-13T04:29:00.481Z,19.17
2019-03-13T04:30:00.762Z,19.18
2019-03-13T04:31:00.375Z,19.17
2019-03-13T04:32:00.529Z,19.19
2019-03-13T04:33:00.574Z,19.2
2019-03-13T04:34:00.387Z,19.2
2019-03-13T04:35:00.892Z,19.22
2019-03-13T04:36:00.747Z,19.22
2019-03-13T04:37:00.447Z,19.23
2019-03-13T04:38:00.504Z,19.24
2019-03-13T04:39:00.614Z,19.25
2019-03-13T04:40:00.503Z,19.26
2019-03-13T04:41:00.476Z,19.27
2019-03-13T04:42:00.589Z,19.29
2019-03-13T04:43:00.439Z,19.31
2019-03-13T04:44:00.608Z,19.3
2019-03-13T04:45:00.385Z,19.32
2019-03-13T04:46:00.470Z,19.35
2019-03-13T04:47:00.561Z,19.36
2019-03-13T04:48:00.411Z,19.39
2019-03-13T04:49:00.466Z,19.39
2019-03-13T04:50:00.644Z,19.39
2019-03-13T04:51:00.388Z,19.4
2019-03-13T04:52:00.592Z,19.41
2019-03-13T04:53:00.431Z,19.43
2019-03-13T04:54:00.393Z,19.44
2019-03-13T04:55:00.572Z,19.45
2019-03-13T04:56:00.362Z,19.46
2019-03-13T04:57:00.891Z,19.47
2019-03-13T04:58:00.617Z,19.48
2019-03-13T04:59:00.408Z,19.49
2019-03-13T05:00:00.426Z,19.5
2019-03-13T05:01:00.582Z,19.52
2019-03-13T05:02:00.377Z,19.53
2019-03-13T05:03:00.551Z,19.54
2019-03-13T05:04:00.514Z,19.55
2019-03-13T05:05:00.416Z,19.56
2019-03-13T05:06:00.530Z,19.57
2019-03-13T05:07:00.645Z,19.59
2019-03-13T05:08:00.416Z,19.59
2019-03-13T05:09:00.470Z,19.61
2019-03-13T05:10:00.380Z,19.61
2019-03-13T05:11:00.753Z,19.63
2019-03-13T05:12:00.533Z,19.64
2019-03-13T05:13:00.321Z,19.65
2019-03-13T05:14:00.463Z,19.67
2019-03-13T05:15:00.488Z,19.67
2019-03-13T05:16:00.320Z,19.68
2019-03-13T05:17:00.512Z,19.69
2019-03-13T05:18:00.476Z,19.7
2019-03-13T05:19:00.424Z,19.71
2019-03-13T05:20:00.550Z,19.72
2019-03-13T05:21:00.593Z,19.74
2019-03-13T05:22:00.301Z,19.75
2019-03-13T05:23:00.440Z,19.76
2019-03-13T05:24:00.604Z,19.77
2019-03-13T05:25:00.369Z,19.78
2019-03-13T05:26:00.529Z,19.8
2019-03-13T05:27:00.613Z,19.8
2019-03-13T05:28:00.334Z,19.82
2019-03-13T05:29:00.663Z,19.79
2019-03-13T05:30:00.870Z,19.74
2019-03-13T05:31:00.375Z,19.67
2019-03-13T05:32:00.504Z,19.62
2019-03-13T05:33:00.487Z,19.57
2019-03-13T05:34:00.339Z,19.54
2019-03-13T05:35:00.549Z,19.48
2019-03-13T05:36:00.596Z,19.43
2019-03-13T05:37:00.379Z,19.46
2019-03-13T05:38:00.519Z,19.46
2019-03-13T05:39:00.365Z,19.5
2019-03-13T05:40:00.500Z,19.52
2019-03-13T05:41:00.660Z,19.53
2019-03-13T05:42:00.545Z,19.55
2019-03-13T05:43:00.628Z,19.57
2019-03-13T05:44:00.465Z,19.58
2019-03-13T05:45:00.470Z,19.61
2019-03-13T05:46:00.501Z,19.64
2019-03-13T05:47:00.338Z,19.64
2019-03-13T05:48:00.465Z,19.65
2019-03-13T05:49:00.500Z,19.66
2019-03-13T05:50:00.524Z,19.67
2019-03-13T05:51:00.443Z,19.68
2019-03-13T05:52:00.704Z,19.69
2019-03-13T05:53:00.339Z,19.69
2019-03-13T05:54:00.481Z,19.7
2019-03-13T05:55:00.509Z,19.7
2019-03-13T05:56:00.486Z,19.7
2019-03-13T05:57:00.479Z,19.72
2019-03-13T05:58:00.623Z,19.72
2019-03-13T05:59:00.358Z,19.73
2019-03-13T06:00:00.537Z,19.73
2019-03-13T06:01:00.523Z,19.73
2019-03-13T06:02:00.353Z,19.73
2019-03-13T06:03:00.493Z,19.73
2019-03-13T06:04:00.406Z,19.73
2019-03-13T06:05:00.629Z,19.74
2019-03-13T06:06:00.535Z,19.74
2019-03-13T06:07:00.662Z,19.74
2019-03-13T06:08:00.391Z,19.74
2019-03-13T06:09:00.541Z,19.74
2019-03-13T06:10:00.500Z,19.74
2019-03-13T06:11:00.429Z,19.75
2019-03-13T06:12:01.627Z,19.75
2019-03-13T06:13:00.442Z,19.74
2019-03-13T06:14:00.428Z,19.74
2019-03-13T06:15:03.398Z,19.75
2019-03-13T06:16:00.345Z,19.75
2019-03-13T06:17:00.463Z,19.74
2019-03-13T06:18:00.607Z,19.74
2019-03-13T06:19:00.399Z,19.74
2019-03-13T06:20:00.705Z,19.74
2019-03-13T06:21:00.254Z,19.74
2019-03-13T06:22:00.486Z,19.73
2019-03-13T06:23:00.589Z,19.74
2019-03-13T06:24:00.314Z,19.73
2019-03-13T06:25:00.452Z,19.73
2019-03-13T06:26:00.469Z,19.73
2019-03-13T06:27:00.316Z,19.73
2019-03-13T06:28:00.447Z,19.73
2019-03-13T06:29:00.469Z,19.73
2019-03-13T06:30:00.421Z,19.73
2019-03-13T06:31:00.511Z,19.72
2019-03-13T06:32:00.466Z,19.72
2019-03-13T06:33:00.443Z,19.72
2019-03-13T06:34:00.438Z,19.71
2019-03-13T06:35:00.746Z,19.71
2019-03-13T06:36:00.423Z,19.71
2019-03-13T06:37:00.512Z,19.71
2019-03-13T06:38:00.553Z,19.71
2019-03-13T06:39:00.482Z,19.7
2019-03-13T06:40:00.567Z,19.71
2019-03-13T06:41:00.401Z,19.7
2019-03-13T06:42:00.318Z,19.71
2019-03-13T06:43:00.474Z,19.7
2019-03-13T06:44:00.305Z,19.69
2019-03-13T06:45:00.414Z,19.7
2019-03-13T06:46:00.513Z,19.69
2019-03-13T06:47:00.380Z,19.69
2019-03-13T06:48:00.440Z,19.69
2019-03-13T06:49:00.928Z,19.69
2019-03-13T06:50:00.380Z,19.68
2019-03-13T06:51:00.412Z,19.68
2019-03-13T06:52:00.533Z,19.68
2019-03-13T06:53:00.349Z,19.67
2019-03-13T06:54:00.382Z,19.67
2019-03-13T06:55:00.947Z,19.67
2019-03-13T06:56:00.458Z,19.66
2019-03-13T06:57:00.536Z,19.67
2019-03-13T06:58:00.368Z,19.66
2019-03-13T06:59:00.439Z,19.65
2019-03-13T07:00:00.427Z,19.66
2019-03-13T07:01:00.315Z,19.65
2019-03-13T07:02:00.460Z,19.65
2019-03-13T07:03:00.480Z,19.65
2019-03-13T07:04:00.251Z,19.64
2019-03-13T07:05:00.560Z,19.64
2019-03-13T07:06:00.618Z,19.64
2019-03-13T07:07:00.303Z,19.64
2019-03-13T07:08:00.529Z,19.64
2019-03-13T07:09:00.801Z,19.63
2019-03-13T07:10:00.359Z,19.64
2019-03-13T07:11:00.488Z,19.63
2019-03-13T07:12:00.244Z,19.62
2019-03-13T07:13:00.444Z,19.63
2019-03-13T07:14:00.436Z,19.63
2019-03-13T07:15:00.478Z,19.62
2019-03-13T07:16:00.446Z,19.63
2019-03-13T07:17:00.547Z,19.62
2019-03-13T07:18:00.741Z,19.63
2019-03-13T07:19:00.362Z,19.62
2019-03-13T07:20:00.501Z,19.62
2019-03-13T07:21:00.329Z,19.62
2019-03-13T07:22:00.343Z,19.61
2019-03-13T07:23:00.492Z,19.61
2019-03-13T07:24:00.368Z,19.61
2019-03-13T07:25:00.386Z,19.61
2019-03-13T07:26:00.495Z,19.6
2019-03-13T07:27:00.376Z,19.61
2019-03-13T07:28:00.574Z,19.6
2019-03-13T07:29:11.368Z,19.6
2019-03-13T07:30:00.428Z,19.61
2019-03-13T07:31:00.470Z,19.6
2019-03-13T07:32:00.529Z,19.59
2019-03-13T07:33:00.351Z,19.59
2019-03-13T07:34:00.437Z,19.58
2019-03-13T07:35:00.463Z,19.58
2019-03-13T07:36:00.349Z,19.57
2019-03-13T07:37:00.414Z,19.57
2019-03-13T07:38:00.571Z,19.57
2019-03-13T07:39:00.402Z,19.57
2019-03-13T07:40:00.433Z,19.57
2019-03-13T07:41:00.577Z,19.57
2019-03-13T07:42:00.371Z,19.57
2019-03-13T07:43:00.401Z,19.56
2019-03-13T07:44:00.492Z,19.57
2019-03-13T07:45:00.428Z,19.57
2019-03-13T07:46:00.412Z,19.55
2019-03-13T07:47:00.525Z,19.55
2019-03-13T07:48:00.369Z,19.55
2019-03-13T07:49:00.378Z,19.55
2019-03-13T07:50:00.574Z,19.54
2019-03-13T07:51:00.364Z,19.55
2019-03-13T07:52:00.690Z,19.54
2019-03-13T07:53:00.522Z,19.54
2019-03-13T07:54:00.335Z,19.54
2019-03-13T07:55:00.383Z,19.53
2019-03-13T07:56:00.502Z,19.54
2019-03-13T07:57:00.387Z,19.54
2019-03-13T07:58:00.381Z,19.53
2019-03-13T07:59:00.576Z,19.52
2019-03-13T08:00:00.527Z,19.52
2019-03-13T08:01:00.531Z,19.51
2019-03-13T08:02:00.246Z,19.52
2019-03-13T08:03:00.416Z,19.52
2019-03-13T08:04:00.469Z,19.51
2019-03-13T08:05:00.397Z,19.51
2019-03-13T08:06:00.427Z,19.51
2019-03-13T08:07:00.564Z,19.5
2019-03-13T08:08:00.295Z,19.49
2019-03-13T08:09:00.467Z,19.49
2019-03-13T08:10:00.406Z,19.5
2019-03-13T08:11:00.399Z,19.49
2019-03-13T08:12:00.436Z,19.49
2019-03-13T08:13:00.305Z,19.48
2019-03-13T08:14:00.380Z,19.49
2019-03-13T08:15:00.563Z,19.49
2019-03-13T08:16:00.285Z,19.48
2019-03-13T08:17:00.315Z,19.48
2019-03-13T08:18:00.453Z,19.48
2019-03-13T08:19:00.368Z,19.48
2019-03-13T08:20:00.499Z,19.47
2019-03-13T08:21:00.509Z,19.47
2019-03-13T08:22:00.522Z,19.46
2019-03-13T08:23:00.518Z,19.45
2019-03-13T08:24:00.620Z,19.46
2019-03-13T08:25:00.392Z,19.45
2019-03-13T08:26:00.394Z,19.46
2019-03-13T08:27:00.258Z,19.45
2019-03-13T08:28:00.447Z,19.45
2019-03-13T08:29:00.581Z,19.44
2019-03-13T08:30:00.373Z,19.44
2019-03-13T08:31:00.407Z,19.43
2019-03-13T08:32:00.601Z,19.44
2019-03-13T08:33:00.284Z,19.43
2019-03-13T08:34:00.451Z,19.43
2019-03-13T08:35:00.585Z,19.44
2019-03-13T08:36:00.795Z,19.43
2019-03-13T08:37:00.474Z,19.43
2019-03-13T08:38:00.492Z,19.45
2019-03-13T08:39:00.394Z,19.45
2019-03-13T08:40:00.528Z,19.46
2019-03-13T08:41:00.292Z,19.46
2019-03-13T08:42:00.605Z,19.47
2019-03-13T08:43:00.815Z,19.48
2019-03-13T08:44:00.333Z,19.49
2019-03-13T08:45:00.404Z,19.51
2019-03-13T08:46:00.478Z,19.51
2019-03-13T08:47:00.346Z,19.53
2019-03-13T08:48:00.404Z,19.54
2019-03-13T08:49:00.309Z,19.56
2019-03-13T08:50:00.540Z,19.58
2019-03-13T08:51:00.378Z,19.6
2019-03-13T08:52:00.357Z,19.61
2019-03-13T08:53:00.412Z,19.64
2019-03-13T08:54:00.412Z,19.66
2019-03-13T08:55:00.556Z,19.67
2019-03-13T08:56:00.473Z,19.69
2019-03-13T08:57:00.429Z,19.7
2019-03-13T08:58:00.371Z,19.73
2019-03-13T08:59:00.411Z,19.75
2019-03-13T09:00:00.581Z,19.76
2019-03-13T09:01:00.485Z,19.79
2019-03-13T09:02:00.408Z,19.8
2019-03-13T09:03:00.351Z,19.82
2019-03-13T09:04:00.428Z,19.86
2019-03-13T09:05:00.645Z,19.88
2019-03-13T09:06:00.381Z,19.9
2019-03-13T09:07:00.331Z,19.91
2019-03-13T09:08:00.489Z,19.92
2019-03-13T09:09:00.415Z,19.94
2019-03-13T09:10:00.450Z,19.95
2019-03-13T09:11:00.360Z,19.96
2019-03-13T09:12:00.385Z,19.98
2019-03-13T09:13:01.475Z,20
2019-03-13T09:14:00.385Z,19.98
2019-03-13T09:15:00.398Z,20
2019-03-13T09:16:00.420Z,20.01
2019-03-13T09:17:00.242Z,20.02
2019-03-13T09:18:00.381Z,20.03
2019-03-13T09:19:00.439Z,20.06
2019-03-13T09:20:00.389Z,20.07
2019-03-13T09:21:00.436Z,20.09
2019-03-13T09:22:00.430Z,20.08
2019-03-13T09:23:00.400Z,20.09
2019-03-13T09:24:00.449Z,20.12
2019-03-13T09:25:11.008Z,20.12
2019-03-13T09:26:00.571Z,20.14
2019-03-13T09:27:00.527Z,20.16
2019-03-13T09:28:00.546Z,20.17
2019-03-13T09:29:00.274Z,20.17
2019-03-13T09:30:00.649Z,20.18
2019-03-13T09:31:00.207Z,20.2
2019-03-13T09:32:00.283Z,20.21
2019-03-13T09:33:00.506Z,20.22
2019-03-13T09:34:00.318Z,20.24
2019-03-13T09:35:00.366Z,20.26
2019-03-13T09:36:00.449Z,20.27
2019-03-13T09:37:00.253Z,20.27
2019-03-13T09:38:00.312Z,20.3
2019-03-13T09:39:00.413Z,20.3
2019-03-13T09:40:00.401Z,20.32
2019-03-13T09:41:00.289Z,20.34
2019-03-13T09:42:00.521Z,20.35
2019-03-13T09:43:00.301Z,20.35
2019-03-13T09:44:00.311Z,20.38
2019-03-13T09:45:00.479Z,20.38
2019-03-13T09:46:00.293Z,20.4
2019-03-13T09:47:00.366Z,20.41
2019-03-13T09:48:00.338Z,20.42
2019-03-13T09:49:00.394Z,20.44
2019-03-13T09:50:00.467Z,20.45
2019-03-13T09:51:00.214Z,20.45
2019-03-13T09:52:00.347Z,20.46
2019-03-13T09:53:00.389Z,20.48
2019-03-13T09:54:00.345Z,20.5
2019-03-13T09:55:00.435Z,20.51
2019-03-13T09:56:00.411Z,20.52
2019-03-13T09:57:00.207Z,20.52
2019-03-13T09:58:00.329Z,20.54
2019-03-13T09:59:00.561Z,20.55
2019-03-13T10:00:00.459Z,20.56
2019-03-13T10:01:00.374Z,20.57
2019-03-13T10:02:00.377Z,20.58
2019-03-13T10:03:00.283Z,20.58
2019-03-13T10:04:00.406Z,20.59
2019-03-13T10:05:00.428Z,20.6
2019-03-13T10:06:00.228Z,20.61
2019-03-13T10:07:00.409Z,20.63
2019-03-13T10:08:00.527Z,20.64
2019-03-13T10:09:00.373Z,20.66
2019-03-13T10:10:00.529Z,20.66
2019-03-13T10:11:00.364Z,20.67
2019-03-13T10:12:00.336Z,20.67
2019-03-13T10:13:00.344Z,20.69
2019-03-13T10:14:00.519Z,20.69
2019-03-13T10:15:00.368Z,20.71
2019-03-13T10:16:00.358Z,20.71
2019-03-13T10:17:09.702Z,20.73
2019-03-13T10:18:00.327Z,20.72
2019-03-13T10:19:00.353Z,20.72
2019-03-13T10:20:00.532Z,20.72
2019-03-13T10:21:00.364Z,20.72
2019-03-13T10:22:00.462Z,20.72
2019-03-13T10:23:00.519Z,20.76
2019-03-13T10:24:00.448Z,20.73
2019-03-13T10:25:00.468Z,20.73
2019-03-13T10:26:00.333Z,20.73
2019-03-13T10:27:00.394Z,20.73
2019-03-13T10:28:00.467Z,20.73
2019-03-13T10:29:00.209Z,20.72
2019-03-13T10:30:00.566Z,20.72
2019-03-13T10:31:00.462Z,20.72
2019-03-13T10:32:00.180Z,20.72
2019-03-13T10:33:00.379Z,20.75
2019-03-13T10:34:00.438Z,20.75
2019-03-13T10:35:00.388Z,20.75
2019-03-13T10:36:00.296Z,20.76
2019-03-13T10:37:00.468Z,20.76
2019-03-13T10:38:12.670Z,20.77
2019-03-13T10:39:00.160Z,20.77
2019-03-13T10:40:00.471Z,20.78
2019-03-13T10:41:00.692Z,20.78
2019-03-13T10:42:00.349Z,20.77
2019-03-13T10:43:00.366Z,20.78
2019-03-13T10:44:00.477Z,20.78
2019-03-13T10:45:00.369Z,20.79
2019-03-13T10:46:00.324Z,20.78
2019-03-13T10:47:00.391Z,20.79
2019-03-13T10:48:00.357Z,20.8
2019-03-13T10:49:00.358Z,20.8
2019-03-13T10:50:00.502Z,20.81
2019-03-13T10:51:00.262Z,20.8
2019-03-13T10:52:00.413Z,20.81
2019-03-13T10:53:00.399Z,20.81
2019-03-13T10:54:00.573Z,20.81
2019-03-13T10:55:00.482Z,20.8
2019-03-13T10:56:00.249Z,20.78
2019-03-13T10:57:00.304Z,20.78
2019-03-13T10:58:00.423Z,20.77
2019-03-13T10:59:00.341Z,20.78
2019-03-13T11:00:00.428Z,20.78
2019-03-13T11:01:00.413Z,20.79
2019-03-13T11:02:00.318Z,20.78
2019-03-13T11:03:00.427Z,20.79
2019-03-13T11:04:00.179Z,20.78
2019-03-13T11:05:00.539Z,20.78
2019-03-13T11:06:00.482Z,20.79
2019-03-13T11:07:00.151Z,20.78
2019-03-13T11:08:00.377Z,20.79
2019-03-13T11:09:00.460Z,20.79
2019-03-13T11:10:00.477Z,20.79
2019-03-13T11:11:00.354Z,20.79
2019-03-13T11:12:00.404Z,20.8
2019-03-13T11:13:00.333Z,20.81
2019-03-13T11:14:00.417Z,20.8
2019-03-13T11:15:00.507Z,20.81
2019-03-13T11:16:00.419Z,20.81
2019-03-13T11:17:00.440Z,20.82
2019-03-13T11:18:00.235Z,20.82
2019-03-13T11:19:00.208Z,20.83
2019-03-13T11:20:00.533Z,20.82
2019-03-13T11:21:00.231Z,20.83
2019-03-13T11:22:00.277Z,20.84
2019-03-13T11:23:00.478Z,20.85
2019-03-13T11:24:00.948Z,20.85
2019-03-13T11:25:00.428Z,20.85
2019-03-13T11:26:00.471Z,20.85
2019-03-13T11:27:00.294Z,20.87
2019-03-13T11:28:00.322Z,20.86
2019-03-13T11:29:00.245Z,20.86
2019-03-13T11:30:00.524Z,20.87
2019-03-13T11:31:00.410Z,20.88
2019-03-13T11:32:00.172Z,20.88
2019-03-13T11:33:00.364Z,20.88
2019-03-13T11:34:00.357Z,20.88
2019-03-13T11:35:00.364Z,20.87
2019-03-13T11:36:00.732Z,20.89
2019-03-13T11:37:00.338Z,20.89
2019-03-13T11:38:00.222Z,20.89
2019-03-13T11:39:00.356Z,20.89
2019-03-13T11:40:00.518Z,20.9
2019-03-13T11:41:00.257Z,20.9
2019-03-13T11:42:00.351Z,20.91
2019-03-13T11:43:00.245Z,20.9
2019-03-13T11:44:00.389Z,20.9
2019-03-13T11:45:00.443Z,20.92
2019-03-13T11:46:00.243Z,20.92
2019-03-13T11:47:00.270Z,20.92
2019-03-13T11:48:00.572Z,20.92
2019-03-13T11:49:00.255Z,20.92
2019-03-13T11:50:00.421Z,20.92
2019-03-13T11:51:00.492Z,20.93
2019-03-13T11:52:00.264Z,20.93
2019-03-13T11:53:00.307Z,20.93
2019-03-13T11:54:00.180Z,20.93
2019-03-13T11:55:00.387Z,20.93
2019-03-13T11:56:00.359Z,20.94
2019-03-13T11:57:00.374Z,20.94
2019-03-13T11:58:00.328Z,20.94
2019-03-13T11:59:00.373Z,20.94
2019-03-13T12:00:00.516Z,20.95
2019-03-13T12:01:00.506Z,20.95
2019-03-13T12:02:00.508Z,20.95
2019-03-13T12:03:00.274Z,20.95
2019-03-13T12:04:00.367Z,20.95
2019-03-13T12:05:00.404Z,20.94
2019-03-13T12:06:00.379Z,20.95
2019-03-13T12:07:00.390Z,20.95
2019-03-13T12:08:00.319Z,20.94
2019-03-13T12:09:00.359Z,20.96
2019-03-13T12:10:00.460Z,20.95
2019-03-13T12:11:00.317Z,20.95
2019-03-13T12:12:00.318Z,20.96
2019-03-13T12:13:00.444Z,20.95
2019-03-13T12:14:00.384Z,20.95
2019-03-13T12:15:00.383Z,20.96
2019-03-13T12:16:00.451Z,20.96
2019-03-13T12:17:00.259Z,20.96
2019-03-13T12:18:00.436Z,20.96
2019-03-13T12:19:00.553Z,20.97
2019-03-13T12:20:00.390Z,20.96
2019-03-13T12:21:00.324Z,20.97
2019-03-13T12:22:00.256Z,20.97
2019-03-13T12:23:00.339Z,20.96
2019-03-13T12:24:00.465Z,20.97
2019-03-13T12:25:00.266Z,20.97
2019-03-13T12:26:03.078Z,20.97
2019-03-13T12:27:00.386Z,20.98
2019-03-13T12:28:00.286Z,20.98
2019-03-13T12:29:00.292Z,20.97
2019-03-13T12:30:00.328Z,20.98
2019-03-13T12:31:00.132Z,20.98
2019-03-13T12:32:00.334Z,20.98
2019-03-13T12:33:00.467Z,20.98
2019-03-13T12:34:00.186Z,20.98
2019-03-13T12:35:00.412Z,20.98
2019-03-13T12:36:00.913Z,20.98
2019-03-13T12:37:00.306Z,20.98
2019-03-13T12:38:00.421Z,20.97
2019-03-13T12:39:00.891Z,21
2019-03-13T12:40:00.406Z,21
2019-03-13T12:41:00.345Z,21.03
2019-03-13T12:42:00.501Z,21.04
2019-03-13T12:43:00.258Z,21.05
2019-03-13T12:44:00.305Z,21.06
2019-03-13T12:45:00.455Z,21.06
2019-03-13T12:46:00.201Z,21.07
2019-03-13T12:47:00.244Z,21.08
2019-03-13T12:48:00.348Z,21.09
2019-03-13T12:49:00.214Z,21.1
2019-03-13T12:50:00.429Z,21.12
2019-03-13T12:51:00.260Z,21.12
2019-03-13T12:52:00.266Z,21.12
2019-03-13T12:53:00.382Z,21.14
2019-03-13T12:54:00.234Z,21.14
2019-03-13T12:55:02.143Z,21.15